sensor_id;sensor_type;location;lat;lon;timestamp;pressure;altitude;pressure_sealevel;temperature;humidity
70009;BME280;59542;37.950;-122.338;2022-07-30T00:00:11;100947.91;;;18.42;67.09
70009;BME280;59542;37.950;-122.338;2022-07-30T00:02:37;100938.13;;;18.41;66.66
70009;BME280;59542;37.950;-122.338;2022-07-30T00:05:04;100934.66;;;18.45;66.55
70009;BME280;59542;37.950;-122.338;2022-07-30T00:07:30;100937.16;;;18.52;66.28
70009;BME280;59542;37.950;-122.338;2022-07-30T00:09:56;100940.09;;;18.72;65.89
70009;BME280;59542;37.950;-122.338;2022-07-30T00:12:23;100934.94;;;18.44;66.36
70009;BME280;59542;37.950;-122.338;2022-07-30T00:14:49;100936.28;;;18.19;67.21
70009;BME280;59542;37.950;-122.338;2022-07-30T00:17:15;100939.09;;;18.30;66.86
70009;BME280;59542;37.950;-122.338;2022-07-30T00:19:41;100939.94;;;18.08;67.59
70009;BME280;59542;37.950;-122.338;2022-07-30T00:22:07;100931.13;;;18.18;67.65
70009;BME280;59542;37.950;-122.338;2022-07-30T00:24:33;100939.75;;;18.15;67.67
70009;BME280;59542;37.950;-122.338;2022-07-30T00:27:00;100939.69;;;18.10;67.77
70009;BME280;59542;37.950;-122.338;2022-07-30T00:29:26;100939.72;;;17.88;68.82
70009;BME280;59542;37.950;-122.338;2022-07-30T00:31:52;100938.06;;;17.87;69.66
70009;BME280;59542;37.950;-122.338;2022-07-30T00:34:18;100943.53;;;17.92;69.91
70009;BME280;59542;37.950;-122.338;2022-07-30T00:36:44;100937.25;;;17.86;70.03
70009;BME280;59542;37.950;-122.338;2022-07-30T00:39:11;100935.09;;;17.66;70.17
70009;BME280;59542;37.950;-122.338;2022-07-30T00:42:01;100941.31;;;17.67;70.46
70009;BME280;59542;37.950;-122.338;2022-07-30T00:44:28;100939.97;;;17.69;70.31
70009;BME280;59542;37.950;-122.338;2022-07-30T00:46:55;100941.97;;;17.57;70.93
70009;BME280;59542;37.950;-122.338;2022-07-30T00:49:22;100943.31;;;17.55;70.85
70009;BME280;59542;37.950;-122.338;2022-07-30T00:51:48;100938.50;;;17.40;71.19
70009;BME280;59542;37.950;-122.338;2022-07-30T00:54:15;100950.31;;;17.34;71.11
70009;BME280;59542;37.950;-122.338;2022-07-30T00:56:42;100925.88;;;17.29;71.43
70009;BME280;59542;37.950;-122.338;2022-07-30T00:59:09;100952.41;;;17.49;71.71
70009;BME280;59542;37.950;-122.338;2022-07-30T01:01:36;100950.47;;;17.44;70.97
70009;BME280;59542;37.950;-122.338;2022-07-30T01:04:02;100949.09;;;17.25;71.82
70009;BME280;59542;37.950;-122.338;2022-07-30T01:06:28;100952.69;;;17.13;72.78
70009;BME280;59542;37.950;-122.338;2022-07-30T01:08:55;100948.75;;;17.04;73.26
70009;BME280;59542;37.950;-122.338;2022-07-30T01:11:27;100941.06;;;16.96;72.89
70009;BME280;59542;37.950;-122.338;2022-07-30T01:13:56;100943.78;;;16.96;73.17
70009;BME280;59542;37.950;-122.338;2022-07-30T01:16:23;100940.00;;;16.97;72.83
70009;BME280;59542;37.950;-122.338;2022-07-30T01:18:50;100947.81;;;17.10;72.94
70009;BME280;59542;37.950;-122.338;2022-07-30T01:21:39;100949.28;;;17.01;72.91
70009;BME280;59542;37.950;-122.338;2022-07-30T01:26:48;100941.00;;;16.62;74.20
70009;BME280;59542;37.950;-122.338;2022-07-30T01:29:16;100949.75;;;16.81;74.12
70009;BME280;59542;37.950;-122.338;2022-07-30T01:31:43;100942.38;;;16.77;74.14
70009;BME280;59542;37.950;-122.338;2022-07-30T01:34:11;100936.97;;;16.77;73.57
70009;BME280;59542;37.950;-122.338;2022-07-30T01:36:41;100948.75;;;16.71;74.39
70009;BME280;59542;37.950;-122.338;2022-07-30T01:39:07;100943.00;;;16.67;74.48
70009;BME280;59542;37.950;-122.338;2022-07-30T01:41:34;100951.78;;;16.74;74.13
70009;BME280;59542;37.950;-122.338;2022-07-30T01:44:02;100947.72;;;16.72;74.57
70009;BME280;59542;37.950;-122.338;2022-07-30T01:46:29;100953.06;;;16.55;74.72
70009;BME280;59542;37.950;-122.338;2022-07-30T01:48:57;100956.47;;;16.50;75.14
70009;BME280;59542;37.950;-122.338;2022-07-30T01:51:26;100951.66;;;16.69;74.34
70009;BME280;59542;37.950;-122.338;2022-07-30T01:53:54;100955.84;;;16.31;75.26
70009;BME280;59542;37.950;-122.338;2022-07-30T01:56:23;100957.44;;;16.44;75.04
70009;BME280;59542;37.950;-122.338;2022-07-30T01:58:51;100958.41;;;16.38;75.18
70009;BME280;59542;37.950;-122.338;2022-07-30T02:01:19;100964.97;;;16.42;74.89
70009;BME280;59542;37.950;-122.338;2022-07-30T02:03:45;100965.78;;;16.43;75.32
70009;BME280;59542;37.950;-122.338;2022-07-30T02:06:16;100966.53;;;16.26;75.80
70009;BME280;59542;37.950;-122.338;2022-07-30T02:08:51;100965.22;;;16.00;76.60
70009;BME280;59542;37.950;-122.338;2022-07-30T02:11:19;100969.16;;;16.21;76.02
70009;BME280;59542;37.950;-122.338;2022-07-30T02:14:28;100978.94;;;15.99;76.35
70009;BME280;59542;37.950;-122.338;2022-07-30T02:16:57;100978.94;;;16.10;76.25
70009;BME280;59542;37.950;-122.338;2022-07-30T02:19:32;100978.56;;;16.19;76.21
70009;BME280;59542;37.950;-122.338;2022-07-30T02:22:10;100990.00;;;15.97;76.84
70009;BME280;59542;37.950;-122.338;2022-07-30T02:24:38;100982.38;;;15.94;77.10
70009;BME280;59542;37.950;-122.338;2022-07-30T02:27:11;100993.66;;;15.91;77.37
70009;BME280;59542;37.950;-122.338;2022-07-30T02:29:39;100992.84;;;15.79;78.04
70009;BME280;59542;37.950;-122.338;2022-07-30T02:32:10;101001.75;;;15.79;77.97
70009;BME280;59542;37.950;-122.338;2022-07-30T02:34:39;101002.22;;;15.76;78.43
70009;BME280;59542;37.950;-122.338;2022-07-30T02:37:07;101008.47;;;15.77;78.15
70009;BME280;59542;37.950;-122.338;2022-07-30T02:39:37;101008.34;;;15.72;78.16
70009;BME280;59542;37.950;-122.338;2022-07-30T02:42:06;101010.69;;;15.80;78.08
70009;BME280;59542;37.950;-122.338;2022-07-30T02:44:34;101006.09;;;15.69;78.27
70009;BME280;59542;37.950;-122.338;2022-07-30T02:47:02;101004.94;;;15.65;78.62
70009;BME280;59542;37.950;-122.338;2022-07-30T02:49:33;101009.97;;;15.61;78.86
70009;BME280;59542;37.950;-122.338;2022-07-30T02:52:02;101017.81;;;15.51;78.97
70009;BME280;59542;37.950;-122.338;2022-07-30T02:54:30;101021.47;;;15.45;79.35
70009;BME280;59542;37.950;-122.338;2022-07-30T02:56:59;101018.28;;;15.36;79.95
70009;BME280;59542;37.950;-122.338;2022-07-30T02:59:28;101025.78;;;15.57;79.02
70009;BME280;59542;37.950;-122.338;2022-07-30T03:01:56;101027.91;;;15.55;78.93
70009;BME280;59542;37.950;-122.338;2022-07-30T03:04:24;101028.94;;;15.54;79.18
70009;BME280;59542;37.950;-122.338;2022-07-30T03:06:53;101038.69;;;15.55;79.04
70009;BME280;59542;37.950;-122.338;2022-07-30T03:09:20;101033.88;;;15.46;79.49
70009;BME280;59542;37.950;-122.338;2022-07-30T03:11:49;101027.91;;;15.55;79.44
70009;BME280;59542;37.950;-122.338;2022-07-30T03:14:16;101035.41;;;15.53;79.57
70009;BME280;59542;37.950;-122.338;2022-07-30T03:16:46;101033.63;;;15.47;79.55
70009;BME280;59542;37.950;-122.338;2022-07-30T03:19:14;101032.25;;;15.45;79.37
70009;BME280;59542;37.950;-122.338;2022-07-30T03:21:42;101036.22;;;15.42;79.00
70009;BME280;59542;37.950;-122.338;2022-07-30T03:24:12;101041.47;;;15.37;79.53
70009;BME280;59542;37.950;-122.338;2022-07-30T03:26:39;101037.63;;;15.33;79.72
70009;BME280;59542;37.950;-122.338;2022-07-30T03:29:08;101027.78;;;15.27;80.27
70009;BME280;59542;37.950;-122.338;2022-07-30T03:31:35;101033.16;;;15.27;80.12
70009;BME280;59542;37.950;-122.338;2022-07-30T03:34:05;101034.00;;;15.27;80.48
70009;BME280;59542;37.950;-122.338;2022-07-30T03:36:32;101045.47;;;15.23;80.90
70009;BME280;59542;37.950;-122.338;2022-07-30T03:39:00;101049.69;;;15.30;80.84
70009;BME280;59542;37.950;-122.338;2022-07-30T03:41:27;101042.78;;;15.35;80.12
70009;BME280;59542;37.950;-122.338;2022-07-30T03:43:54;101046.88;;;15.37;80.43
70009;BME280;59542;37.950;-122.338;2022-07-30T03:46:21;101042.66;;;15.29;81.04
70009;BME280;59542;37.950;-122.338;2022-07-30T03:48:48;101041.47;;;15.37;80.49
70009;BME280;59542;37.950;-122.338;2022-07-30T03:51:15;101042.66;;;15.41;80.13
70009;BME280;59542;37.950;-122.338;2022-07-30T03:53:42;101047.13;;;15.36;80.55
70009;BME280;59542;37.950;-122.338;2022-07-30T03:56:10;101054.97;;;15.37;80.36
70009;BME280;59542;37.950;-122.338;2022-07-30T03:58:37;101047.94;;;15.36;80.26
70009;BME280;59542;37.950;-122.338;2022-07-30T04:01:04;101053.81;;;15.45;80.26
70009;BME280;59542;37.950;-122.338;2022-07-30T04:03:31;101055.78;;;15.38;80.36
70009;BME280;59542;37.950;-122.338;2022-07-30T04:05:58;101059.56;;;15.48;79.65
70009;BME280;59542;37.950;-122.338;2022-07-30T04:08:26;101067.31;;;15.56;79.40
70009;BME280;59542;37.950;-122.338;2022-07-30T04:10:52;101064.97;;;15.60;79.55
70009;BME280;59542;37.950;-122.338;2022-07-30T04:13:19;101061.84;;;15.75;78.72
70009;BME280;59542;37.950;-122.338;2022-07-30T04:18:19;101069.22;;;15.79;77.90
70009;BME280;59542;37.950;-122.338;2022-07-30T04:20:48;101080.50;;;15.88;77.17
70009;BME280;59542;37.950;-122.338;2022-07-30T04:23:15;101078.03;;;15.75;77.47
70009;BME280;59542;37.950;-122.338;2022-07-30T04:25:42;101085.91;;;15.88;77.07
70009;BME280;59542;37.950;-122.338;2022-07-30T04:28:09;101081.66;;;15.92;76.83
70009;BME280;59542;37.950;-122.338;2022-07-30T04:30:36;101092.34;;;15.99;76.75
70009;BME280;59542;37.950;-122.338;2022-07-30T04:33:03;101086.38;;;15.85;76.96
70009;BME280;59542;37.950;-122.338;2022-07-30T04:35:31;101083.22;;;16.00;76.45
70009;BME280;59542;37.950;-122.338;2022-07-30T04:37:57;101088.25;;;15.96;76.15
70009;BME280;59542;37.950;-122.338;2022-07-30T04:40:25;101088.81;;;15.98;76.22
70009;BME280;59542;37.950;-122.338;2022-07-30T04:42:51;101092.47;;;15.92;76.31
70009;BME280;59542;37.950;-122.338;2022-07-30T04:45:17;101090.38;;;15.94;76.58
70009;BME280;59542;37.950;-122.338;2022-07-30T04:47:46;101095.06;;;16.10;75.75
70009;BME280;59542;37.950;-122.338;2022-07-30T04:50:13;101092.81;;;16.07;75.81
70009;BME280;59542;37.950;-122.338;2022-07-30T04:52:42;101102.41;;;16.15;75.32
70009;BME280;59542;37.950;-122.338;2022-07-30T04:55:10;101101.72;;;16.08;75.51
70009;BME280;59542;37.950;-122.338;2022-07-30T04:57:37;101096.47;;;16.01;75.84
70009;BME280;59542;37.950;-122.338;2022-07-30T05:00:06;101112.06;;;16.11;75.93
70009;BME280;59542;37.950;-122.338;2022-07-30T05:02:34;101107.38;;;16.06;75.56
70009;BME280;59542;37.950;-122.338;2022-07-30T05:05:03;101100.78;;;16.14;75.69
70009;BME280;59542;37.950;-122.338;2022-07-30T05:07:30;101101.59;;;16.15;75.54
70009;BME280;59542;37.950;-122.338;2022-07-30T05:09:57;101109.47;;;16.28;75.37
70009;BME280;59542;37.950;-122.338;2022-07-30T05:12:33;101106.88;;;16.33;75.00
70009;BME280;59542;37.950;-122.338;2022-07-30T05:15:04;101108.44;;;16.17;75.21
70009;BME280;59542;37.950;-122.338;2022-07-30T05:17:30;101108.31;;;16.12;75.63
70009;BME280;59542;37.950;-122.338;2022-07-30T05:19:56;101108.06;;;16.02;76.10
70009;BME280;59542;37.950;-122.338;2022-07-30T05:22:23;101110.88;;;16.19;75.91
70009;BME280;59542;37.950;-122.338;2022-07-30T05:24:52;101098.56;;;16.11;76.12
70009;BME280;59542;37.950;-122.338;2022-07-30T05:27:18;101090.13;;;16.07;76.28
70009;BME280;59542;37.950;-122.338;2022-07-30T05:29:45;101100.91;;;16.07;76.43
70009;BME280;59542;37.950;-122.338;2022-07-30T05:32:12;101101.16;;;16.06;76.34
70009;BME280;59542;37.950;-122.338;2022-07-30T05:34:38;101091.63;;;16.03;75.72
70009;BME280;59542;37.950;-122.338;2022-07-30T05:37:04;101098.47;;;16.06;75.69
70009;BME280;59542;37.950;-122.338;2022-07-30T05:39:31;101094.94;;;15.94;76.25
70009;BME280;59542;37.950;-122.338;2022-07-30T05:41:57;101098.47;;;16.06;75.76
70009;BME280;59542;37.950;-122.338;2022-07-30T05:44:23;101099.59;;;16.10;75.74
70009;BME280;59542;37.950;-122.338;2022-07-30T05:46:50;101101.38;;;16.04;76.02
70009;BME280;59542;37.950;-122.338;2022-07-30T05:49:16;101098.56;;;16.11;76.01
70009;BME280;59542;37.950;-122.338;2022-07-30T05:51:43;101095.38;;;16.14;75.38
70009;BME280;59542;37.950;-122.338;2022-07-30T05:54:09;101095.50;;;16.07;75.63
70009;BME280;59542;37.950;-122.338;2022-07-30T05:56:35;101092.22;;;16.17;75.50
70009;BME280;59542;37.950;-122.338;2022-07-30T05:59:02;101097.28;;;16.02;76.25
70009;BME280;59542;37.950;-122.338;2022-07-30T06:01:29;101090.81;;;16.15;75.62
70009;BME280;59542;37.950;-122.338;2022-07-30T06:03:55;101096.78;;;16.28;75.26
70009;BME280;59542;37.950;-122.338;2022-07-30T06:06:21;101103.72;;;16.13;76.15
70009;BME280;59542;37.950;-122.338;2022-07-30T06:08:47;101104.69;;;16.06;76.46
70009;BME280;59542;37.950;-122.338;2022-07-30T06:11:15;101107.38;;;16.18;75.99
70009;BME280;59542;37.950;-122.338;2022-07-30T06:13:41;101104.56;;;16.13;75.93
70009;BME280;59542;37.950;-122.338;2022-07-30T06:16:09;101103.25;;;16.16;75.85
70009;BME280;59542;37.950;-122.338;2022-07-30T06:18:35;101099.25;;;16.30;75.37
70009;BME280;59542;37.950;-122.338;2022-07-30T06:21:01;101104.91;;;16.17;75.57
70009;BME280;59542;37.950;-122.338;2022-07-30T06:23:27;101098.47;;;16.06;75.68
70009;BME280;59542;37.950;-122.338;2022-07-30T06:25:54;101100.91;;;16.07;76.05
70009;BME280;59542;37.950;-122.338;2022-07-30T06:28:20;101103.63;;;16.07;76.16
70009;BME280;59542;37.950;-122.338;2022-07-30T06:30:46;101098.34;;;16.13;75.98
70009;BME280;59542;37.950;-122.338;2022-07-30T06:33:14;101110.06;;;16.18;75.51
70009;BME280;59542;37.950;-122.338;2022-07-30T06:35:41;101105.75;;;15.94;76.52
70009;BME280;59542;37.950;-122.338;2022-07-30T06:38:07;101101.25;;;15.88;76.99
70009;BME280;59542;37.950;-122.338;2022-07-30T06:40:33;101103.38;;;15.86;77.40
70009;BME280;59542;37.950;-122.338;2022-07-30T06:42:59;101098.94;;;15.79;77.67
70009;BME280;59542;37.950;-122.338;2022-07-30T06:45:26;101100.00;;;15.78;77.86
70009;BME280;59542;37.950;-122.338;2022-07-30T06:47:56;101097.28;;;15.78;77.30
70009;BME280;59542;37.950;-122.338;2022-07-30T06:50:24;101105.97;;;15.80;77.10
70009;BME280;59542;37.950;-122.338;2022-07-30T06:52:50;101105.72;;;15.70;77.48
70009;BME280;59542;37.950;-122.338;2022-07-30T06:55:16;101105.50;;;15.72;77.77
70009;BME280;59542;37.950;-122.338;2022-07-30T06:57:43;101111.34;;;15.92;77.57
70009;BME280;59542;37.950;-122.338;2022-07-30T07:00:09;101116.19;;;16.02;77.01
70009;BME280;59542;37.950;-122.338;2022-07-30T07:02:35;101106.31;;;15.84;77.43
70009;BME280;59542;37.950;-122.338;2022-07-30T07:05:04;101110.41;;;15.75;77.51
70009;BME280;59542;37.950;-122.338;2022-07-30T07:07:30;101110.78;;;15.90;76.99
70009;BME280;59542;37.950;-122.338;2022-07-30T07:09:56;101118.44;;;16.05;76.75
70009;BME280;59542;37.950;-122.338;2022-07-30T07:12:23;101123.34;;;16.08;76.34
70009;BME280;59542;37.950;-122.338;2022-07-30T07:14:49;101119.59;;;15.86;76.90
70009;BME280;59542;37.950;-122.338;2022-07-30T07:17:15;101109.47;;;15.93;76.99
70009;BME280;59542;37.950;-122.338;2022-07-30T07:19:42;101120.88;;;15.95;76.76
70009;BME280;59542;37.950;-122.338;2022-07-30T07:22:08;101128.38;;;16.04;76.46
70009;BME280;59542;37.950;-122.338;2022-07-30T07:24:34;101130.16;;;16.10;76.66
70009;BME280;59542;37.950;-122.338;2022-07-30T07:27:01;101122.41;;;16.02;76.50
70009;BME280;59542;37.950;-122.338;2022-07-30T07:29:27;101128.16;;;15.94;76.54
70009;BME280;59542;37.950;-122.338;2022-07-30T07:31:53;101117.81;;;15.91;76.85
70009;BME280;59542;37.950;-122.338;2022-07-30T07:34:19;101118.50;;;15.98;76.81
70009;BME280;59542;37.950;-122.338;2022-07-30T07:36:46;101117.00;;;15.91;77.41
70009;BME280;59542;37.950;-122.338;2022-07-30T07:39:12;101111.25;;;15.87;77.16
70009;BME280;59542;37.950;-122.338;2022-07-30T07:41:38;101108.09;;;15.78;77.77
70009;BME280;59542;37.950;-122.338;2022-07-30T07:44:05;101108.91;;;15.79;77.42
70009;BME280;59542;37.950;-122.338;2022-07-30T07:46:31;101109.28;;;15.82;77.22
70009;BME280;59542;37.950;-122.338;2022-07-30T07:48:57;101110.91;;;15.83;77.78
70009;BME280;59542;37.950;-122.338;2022-07-30T07:51:24;101111.03;;;16.00;77.30
70009;BME280;59542;37.950;-122.338;2022-07-30T07:53:50;101112.31;;;15.86;77.52
70009;BME280;59542;37.950;-122.338;2022-07-30T07:56:16;101114.53;;;15.89;77.59
70009;BME280;59542;37.950;-122.338;2022-07-30T07:58:42;101109.28;;;15.82;77.86
70009;BME280;59542;37.950;-122.338;2022-07-30T08:01:08;101104.78;;;15.76;77.96
70009;BME280;59542;37.950;-122.338;2022-07-30T08:03:34;101107.25;;;15.90;77.54
70009;BME280;59542;37.950;-122.338;2022-07-30T08:06:01;101102.00;;;15.83;77.56
70009;BME280;59542;37.950;-122.338;2022-07-30T08:08:27;101108.41;;;15.82;77.25
70009;BME280;59542;37.950;-122.338;2022-07-30T08:10:53;101106.44;;;15.89;76.94
70009;BME280;59542;37.950;-122.338;2022-07-30T08:13:19;101108.22;;;15.83;77.04
70009;BME280;59542;37.950;-122.338;2022-07-30T08:15:45;101107.59;;;15.93;77.04
70009;BME280;59542;37.950;-122.338;2022-07-30T08:18:12;101103.97;;;15.88;77.05
70009;BME280;59542;37.950;-122.338;2022-07-30T08:20:38;101098.59;;;15.99;76.47
70009;BME280;59542;37.950;-122.338;2022-07-30T08:23:05;101100.44;;;15.87;76.76
70009;BME280;59542;37.950;-122.338;2022-07-30T08:25:32;101103.03;;;15.94;76.58
70009;BME280;59542;37.950;-122.338;2022-07-30T08:27:59;101105.84;;;15.87;76.47
70009;BME280;59542;37.950;-122.338;2022-07-30T08:30:28;101109.47;;;15.93;76.37
70009;BME280;59542;37.950;-122.338;2022-07-30T08:32:54;101106.56;;;15.82;76.97
70009;BME280;59542;37.950;-122.338;2022-07-30T08:35:20;101100.09;;;15.83;77.04
70009;BME280;59542;37.950;-122.338;2022-07-30T08:37:47;101095.53;;;15.84;76.87
70009;BME280;59542;37.950;-122.338;2022-07-30T08:40:13;101105.63;;;16.00;76.63
70009;BME280;59542;37.950;-122.338;2022-07-30T08:42:39;101094.00;;;15.88;76.99
70009;BME280;59542;37.950;-122.338;2022-07-30T08:45:06;101103.25;;;15.92;76.83
70009;BME280;59542;37.950;-122.338;2022-07-30T08:47:33;101092.69;;;16.02;76.24
70009;BME280;59542;37.950;-122.338;2022-07-30T08:50:01;101092.59;;;15.97;76.15
70009;BME280;59542;37.950;-122.338;2022-07-30T08:52:37;101089.88;;;15.97;76.38
70009;BME280;59542;37.950;-122.338;2022-07-30T08:55:04;101092.81;;;15.96;76.25
70009;BME280;59542;37.950;-122.338;2022-07-30T08:57:32;101097.53;;;16.00;76.42
70009;BME280;59542;37.950;-122.338;2022-07-30T08:59:59;101091.06;;;15.90;76.72
70009;BME280;59542;37.950;-122.338;2022-07-30T09:02:26;101094.94;;;15.94;76.54
70009;BME280;59542;37.950;-122.338;2022-07-30T09:04:54;101084.81;;;16.13;76.28
70009;BME280;59542;37.950;-122.338;2022-07-30T09:07:21;101091.19;;;16.06;76.26
70009;BME280;59542;37.950;-122.338;2022-07-30T09:09:47;101083.44;;;15.87;76.42
70009;BME280;59542;37.950;-122.338;2022-07-30T09:12:43;101082.50;;;15.81;77.07
70009;BME280;59542;37.950;-122.338;2022-07-30T09:15:15;101084.13;;;15.82;76.77
70009;BME280;59542;37.950;-122.338;2022-07-30T09:20:14;101082.38;;;15.88;76.64
70009;BME280;59542;37.950;-122.338;2022-07-30T09:22:43;101087.69;;;15.82;77.00
70009;BME280;59542;37.950;-122.338;2022-07-30T09:25:09;101084.72;;;15.96;77.39
70009;BME280;59542;37.950;-122.338;2022-07-30T09:27:47;101078.50;;;15.95;78.25
70009;BME280;59542;37.950;-122.338;2022-07-30T09:30:15;101088.63;;;15.88;77.94
70009;BME280;59542;37.950;-122.338;2022-07-30T09:32:52;101081.22;;;15.72;78.45
70009;BME280;59542;37.950;-122.338;2022-07-30T09:35:19;101092.59;;;15.86;78.22
70009;BME280;59542;37.950;-122.338;2022-07-30T09:37:46;101096.91;;;15.98;78.41
70009;BME280;59542;37.950;-122.338;2022-07-30T09:40:15;101084.03;;;15.89;78.65
70009;BME280;59542;37.950;-122.338;2022-07-30T09:42:42;101088.50;;;15.83;79.34
70009;BME280;59542;37.950;-122.338;2022-07-30T09:45:13;101092.47;;;15.92;78.84
70009;BME280;59542;37.950;-122.338;2022-07-30T09:47:42;101100.81;;;15.91;78.52
70009;BME280;59542;37.950;-122.338;2022-07-30T09:50:16;101098.22;;;15.84;77.80
70009;BME280;59542;37.950;-122.338;2022-07-30T09:52:45;101092.81;;;15.72;78.08
70009;BME280;59542;37.950;-122.338;2022-07-30T09:55:13;101092.00;;;15.83;78.56
70009;BME280;59542;37.950;-122.338;2022-07-30T09:58:01;101090.34;;;15.71;78.91
70009;BME280;59542;37.950;-122.338;2022-07-30T10:00:28;101080.72;;;15.75;79.29
70009;BME280;59542;37.950;-122.338;2022-07-30T10:02:55;101080.59;;;15.70;79.25
70009;BME280;59542;37.950;-122.338;2022-07-30T10:05:22;101079.38;;;15.54;79.17
70009;BME280;59542;37.950;-122.338;2022-07-30T10:07:55;101079.75;;;15.57;79.08
70009;BME280;59542;37.950;-122.338;2022-07-30T10:10:24;101075.75;;;15.60;78.78
70009;BME280;59542;37.950;-122.338;2022-07-30T10:12:59;101087.56;;;15.66;78.45
70009;BME280;59542;37.950;-122.338;2022-07-30T10:15:30;101090.09;;;15.61;78.65
70009;BME280;59542;37.950;-122.338;2022-07-30T10:17:57;101097.81;;;15.45;79.42
70009;BME280;59542;37.950;-122.338;2022-07-30T10:20:25;101090.19;;;15.54;79.32
70009;BME280;59542;37.950;-122.338;2022-07-30T10:22:52;101082.31;;;15.52;79.54
70009;BME280;59542;37.950;-122.338;2022-07-30T10:25:20;101086.63;;;15.72;78.78
70009;BME280;59542;37.950;-122.338;2022-07-30T10:27:47;101080.81;;;15.56;79.79
70009;BME280;59542;37.950;-122.338;2022-07-30T10:30:14;101089.47;;;15.47;79.61
70009;BME280;59542;37.950;-122.338;2022-07-30T10:32:40;101087.34;;;15.37;79.89
70009;BME280;59542;37.950;-122.338;2022-07-30T10:35:07;101090.28;;;15.36;79.76
70009;BME280;59542;37.950;-122.338;2022-07-30T10:37:35;101081.13;;;15.48;79.57
70009;BME280;59542;37.950;-122.338;2022-07-30T10:40:16;101086.09;;;15.51;79.23
70009;BME280;59542;37.950;-122.338;2022-07-30T10:43:05;101086.31;;;15.50;79.79
70009;BME280;59542;37.950;-122.338;2022-07-30T10:48:12;101088.28;;;15.43;79.88
70009;BME280;59542;37.950;-122.338;2022-07-30T10:50:55;101092.66;;;15.44;79.91
70009;BME280;59542;37.950;-122.338;2022-07-30T10:53:42;101083.25;;;15.46;79.77
70009;BME280;59542;37.950;-122.338;2022-07-30T11:04:23;101080.94;;;15.50;79.66
70009;BME280;59542;37.950;-122.338;2022-07-30T11:06:51;101081.13;;;15.48;79.83
70009;BME280;59542;37.950;-122.338;2022-07-30T11:09:41;101072.22;;;15.48;79.61
70009;BME280;59542;37.950;-122.338;2022-07-30T11:12:08;101085.59;;;15.43;79.55
70009;BME280;59542;37.950;-122.338;2022-07-30T11:17:18;101076.34;;;15.50;79.30
70009;BME280;59542;37.950;-122.338;2022-07-30T11:22:31;101080.66;;;15.40;79.98
70009;BME280;59542;37.950;-122.338;2022-07-30T11:25:04;101083.13;;;15.41;79.75
70009;BME280;59542;37.950;-122.338;2022-07-30T11:27:42;101080.34;;;15.59;79.95
70009;BME280;59542;37.950;-122.338;2022-07-30T11:32:52;101079.38;;;15.54;79.75
70009;BME280;59542;37.950;-122.338;2022-07-30T11:35:24;101083.63;;;15.50;79.90
70009;BME280;59542;37.950;-122.338;2022-07-30T11:38:01;101074.00;;;15.54;79.78
70009;BME280;59542;37.950;-122.338;2022-07-30T11:40:32;101077.06;;;15.57;79.01
70009;BME280;59542;37.950;-122.338;2022-07-30T11:43:24;101070.03;;;15.56;78.93
70009;BME280;59542;37.950;-122.338;2022-07-30T11:46:16;101071.91;;;15.56;79.05
70009;BME280;59542;37.950;-122.338;2022-07-30T11:49:13;101075.41;;;15.56;78.93
70009;BME280;59542;37.950;-122.338;2022-07-30T11:51:42;101081.13;;;15.48;79.18
70009;BME280;59542;37.950;-122.338;2022-07-30T11:54:09;101082.19;;;15.36;79.71
70009;BME280;59542;37.950;-122.338;2022-07-30T11:56:36;101070.47;;;15.42;79.45
70009;BME280;59542;37.950;-122.338;2022-07-30T11:59:04;101080.69;;;15.51;79.68
70009;BME280;59542;37.950;-122.338;2022-07-30T12:01:30;101090.66;;;15.51;79.50
70009;BME280;59542;37.950;-122.338;2022-07-30T12:04:04;101089.09;;;15.43;79.38
70009;BME280;59542;37.950;-122.338;2022-07-30T12:06:31;101084.66;;;15.49;79.91
70009;BME280;59542;37.950;-122.338;2022-07-30T12:08:57;101080.69;;;15.51;79.55
70009;BME280;59542;37.950;-122.338;2022-07-30T12:11:30;101087.16;;;15.50;79.93
70009;BME280;59542;37.950;-122.338;2022-07-30T12:13:58;101093.69;;;15.54;80.17
70009;BME280;59542;37.950;-122.338;2022-07-30T12:16:27;101098.63;;;15.46;80.43
70009;BME280;59542;37.950;-122.338;2022-07-30T12:18:54;101101.22;;;15.52;80.58
70009;BME280;59542;37.950;-122.338;2022-07-30T12:21:20;101105.66;;;15.47;80.79
70009;BME280;59542;37.950;-122.338;2022-07-30T12:24:07;101100.63;;;15.50;81.16
70009;BME280;59542;37.950;-122.338;2022-07-30T12:26:35;101099.19;;;15.48;81.23
70009;BME280;59542;37.950;-122.338;2022-07-30T12:29:04;101098.38;;;15.47;81.27
70009;BME280;59542;37.950;-122.338;2022-07-30T12:31:32;101107.09;;;15.49;80.83
70009;BME280;59542;37.950;-122.338;2022-07-30T12:33:58;101094.25;;;15.33;81.21
70009;BME280;59542;37.950;-122.338;2022-07-30T12:36:28;101097.97;;;15.20;81.23
70009;BME280;59542;37.950;-122.338;2022-07-30T12:38:56;101102.34;;;15.33;80.88
70009;BME280;59542;37.950;-122.338;2022-07-30T12:41:45;101105.19;;;15.38;80.40
70009;BME280;59542;37.950;-122.338;2022-07-30T12:44:10;101110.53;;;15.26;80.60
70009;BME280;59542;37.950;-122.338;2022-07-30T12:46:55;101116.66;;;15.34;80.78
70009;BME280;59542;37.950;-122.338;2022-07-30T12:49:30;101118.28;;;15.23;81.13
70009;BME280;59542;37.950;-122.338;2022-07-30T12:51:57;101126.53;;;15.40;80.08
70009;BME280;59542;37.950;-122.338;2022-07-30T12:54:23;101119.69;;;15.37;80.91